createdAt,value
2023-01-25T00:01:35.735Z,-0.20
2023-01-25T00:04:37.503Z,-0.18
2023-01-25T00:07:40.993Z,-0.22
2023-01-25T00:10:43.242Z,-0.14
2023-01-25T00:13:52.956Z,-0.35
2023-01-25T00:16:54.879Z,-0.34
2023-01-25T00:19:56.897Z,-0.30
2023-01-25T00:23:00.297Z,-0.32
2023-01-25T00:26:03.420Z,-0.30
2023-01-25T00:29:06.555Z,-0.48
2023-01-25T00:32:32.716Z,-0.40
2023-01-25T00:35:34.987Z,-0.29
2023-01-25T00:38:39.836Z,-0.27
2023-01-25T00:41:42.992Z,-0.23
2023-01-25T00:44:45.326Z,-0.17
2023-01-25T00:47:47.170Z,-0.25
2023-01-25T00:50:50.325Z,-0.22
2023-01-25T00:53:54.913Z,-0.27
2023-01-25T00:56:57.567Z,-0.21
2023-01-25T01:00:00.874Z,-0.26
2023-01-25T01:03:02.723Z,-0.22
2023-01-25T01:06:06.862Z,-0.25
2023-01-25T01:09:14.124Z,-0.21
2023-01-25T01:12:16.355Z,-0.41
2023-01-25T01:15:19.595Z,-0.38
2023-01-25T01:18:21.852Z,-0.32
2023-01-25T01:21:25.208Z,-0.33
2023-01-25T01:24:28.771Z,-0.41
2023-01-25T01:27:32.902Z,-0.49
2023-01-25T01:30:36.102Z,-0.36
2023-01-25T01:33:38.206Z,-0.38
2023-01-25T01:36:40.615Z,-0.34
2023-01-25T01:39:45.350Z,-0.42
2023-01-25T01:42:57.295Z,-0.42
2023-01-25T01:46:01.003Z,-0.27
2023-01-25T01:49:06.504Z,-0.35
2023-01-25T01:52:13.633Z,-0.37
2023-01-25T01:55:21.489Z,-0.38
2023-01-25T01:58:23.419Z,-0.34
2023-01-25T02:01:25.556Z,-0.34
2023-01-25T02:04:28.461Z,-0.39
2023-01-25T02:07:35.183Z,-0.34
2023-01-25T02:10:40.958Z,-0.27
2023-01-25T02:13:43.017Z,-0.26
2023-01-25T02:16:45.500Z,-0.29
2023-01-25T02:19:58.804Z,-0.27
2023-01-25T02:23:07.740Z,-0.33
2023-01-25T02:26:11.320Z,-0.26
2023-01-25T02:29:17.229Z,-0.22
2023-01-25T02:32:19.102Z,-0.23
2023-01-25T02:35:22.350Z,-0.17
2023-01-25T02:38:25.005Z,-0.21
2023-01-25T02:41:32.821Z,-0.23
2023-01-25T02:44:35.618Z,-0.34
2023-01-25T02:47:39.862Z,-0.29
2023-01-25T02:50:42.136Z,-0.39
2023-01-25T02:53:44.192Z,-0.40
2023-01-25T02:56:48.024Z,-0.44
2023-01-25T02:59:51.395Z,-0.52
2023-01-25T03:02:53.522Z,-0.51
2023-01-25T03:05:57.320Z,-0.26
2023-01-25T03:08:59.472Z,-0.43
2023-01-25T03:12:04.137Z,-0.26
2023-01-25T03:15:08.237Z,-0.32
2023-01-25T03:18:10.708Z,-0.45
2023-01-25T03:21:17.829Z,-0.61
2023-01-25T03:24:19.905Z,-0.52
2023-01-25T03:27:23.608Z,-0.50
2023-01-25T03:30:25.862Z,-0.34
2023-01-25T03:33:28.136Z,-0.43
2023-01-25T03:36:31.295Z,-0.52
2023-01-25T03:39:33.398Z,-0.66
2023-01-25T03:42:36.674Z,-0.59
2023-01-25T03:45:39.108Z,-0.56
2023-01-25T03:48:41.142Z,-0.53
2023-01-25T03:51:43.467Z,-0.53
2023-01-25T03:54:47.268Z,-0.50
2023-01-25T03:57:51.450Z,-0.73
2023-01-25T04:00:56.599Z,-0.69
2023-01-25T04:03:58.903Z,-0.64
2023-01-25T04:07:01.120Z,-0.58
2023-01-25T04:10:05.041Z,-0.62
2023-01-25T04:13:09.245Z,-0.67
2023-01-25T04:16:11.380Z,-0.60
2023-01-25T04:19:13.639Z,-0.63
2023-01-25T04:22:17.877Z,-0.56
2023-01-25T04:25:19.749Z,-0.56
2023-01-25T04:28:25.606Z,-0.51
2023-01-25T04:31:27.937Z,-0.75
2023-01-25T04:34:30.174Z,-0.63
2023-01-25T04:37:33.574Z,-0.61
2023-01-25T04:40:35.821Z,-0.68
2023-01-25T04:43:40.367Z,-0.64
2023-01-25T04:46:42.597Z,-0.65
2023-01-25T04:49:47.709Z,-0.61
2023-01-25T04:52:50.044Z,-0.64
2023-01-25T04:55:53.590Z,-0.69
2023-01-25T04:58:57.397Z,-0.72
2023-01-25T05:01:59.546Z,-0.64
2023-01-25T05:05:01.456Z,-0.62
2023-01-25T05:08:04.735Z,-0.54
2023-01-25T05:11:07.107Z,-0.60
2023-01-25T05:14:10.862Z,-0.60
2023-01-25T05:17:13.105Z,-0.55
2023-01-25T05:20:15.025Z,-0.59
2023-01-25T05:23:17.035Z,-0.56
2023-01-25T05:26:19.180Z,-0.57
2023-01-25T05:29:22.826Z,-0.51
2023-01-25T05:32:25.101Z,-0.71
2023-01-25T05:35:28.703Z,-0.65
2023-01-25T05:38:30.988Z,-0.67
2023-01-25T05:41:33.971Z,-0.60
2023-01-25T05:44:37.784Z,-0.66
2023-01-25T05:47:41.010Z,-0.59
2023-01-25T05:50:43.240Z,-0.70
2023-01-25T05:53:47.339Z,-0.61
2023-01-25T05:56:50.241Z,-0.69
2023-01-25T05:59:53.560Z,-0.68
2023-01-25T06:03:01.188Z,-0.70
2023-01-25T06:06:04.910Z,-0.63
2023-01-25T06:09:11.097Z,-0.57
2023-01-25T06:12:12.996Z,-0.61
2023-01-25T06:15:16.370Z,-0.74
2023-01-25T06:18:18.181Z,-0.61
2023-01-25T06:21:20.479Z,-0.85
2023-01-25T06:24:23.988Z,-0.85
2023-01-25T06:27:26.496Z,-0.79
2023-01-25T06:30:29.997Z,-0.73
2023-01-25T06:33:31.827Z,-0.56
2023-01-25T06:36:34.008Z,-0.73
2023-01-25T06:39:38.092Z,-0.61
2023-01-25T06:42:40.167Z,-0.58
2023-01-25T06:45:43.491Z,-0.70
2023-01-25T06:48:45.423Z,-0.67
2023-01-25T06:51:48.639Z,-0.47
2023-01-25T06:54:50.491Z,-0.61
2023-01-25T06:57:52.372Z,-0.69
2023-01-25T07:01:00.496Z,-0.66
2023-01-25T07:04:02.239Z,-0.70
2023-01-25T07:07:04.191Z,-0.55
2023-01-25T07:10:06.995Z,-0.47
2023-01-25T07:13:08.894Z,-0.54
2023-01-25T07:16:15.266Z,-0.59
2023-01-25T07:19:19.505Z,-0.53
2023-01-25T07:22:22.152Z,-0.55
2023-01-25T07:25:24.421Z,-0.59
2023-01-25T07:28:27.740Z,-0.64
2023-01-25T07:31:31.857Z,-0.41
2023-01-25T07:34:35.526Z,-0.54
2023-01-25T07:37:38.018Z,-0.57
2023-01-25T07:40:40.432Z,-0.57
2023-01-25T07:43:42.447Z,-0.38
2023-01-25T07:46:46.244Z,-0.30
2023-01-25T07:49:48.386Z,-0.38
2023-01-25T07:52:50.330Z,-0.48
2023-01-25T07:55:52.252Z,-0.55
2023-01-25T07:58:55.064Z,-0.45
2023-01-25T08:01:58.337Z,-0.44
2023-01-25T08:05:01.375Z,-0.50
2023-01-25T08:08:03.766Z,-0.49
2023-01-25T08:11:10.570Z,-0.49
2023-01-25T08:14:12.926Z,-0.57
2023-01-25T08:17:16.511Z,-0.50
2023-01-25T08:20:20.231Z,-0.51
2023-01-25T08:23:22.232Z,-0.42
2023-01-25T08:26:27.032Z,-0.61
2023-01-25T08:29:28.864Z,-0.59
2023-01-25T08:32:37.117Z,-0.56
2023-01-25T08:35:39.709Z,-0.37
2023-01-25T08:38:43.141Z,-0.66
2023-01-25T08:41:45.232Z,-0.65
2023-01-25T08:44:47.407Z,-0.59
2023-01-25T08:47:51.449Z,-0.59
2023-01-25T08:50:53.565Z,-0.53
2023-01-25T08:53:55.540Z,-0.56
2023-01-25T08:56:57.553Z,-0.47
2023-01-25T08:59:59.716Z,-0.48
2023-01-25T09:03:03.103Z,-0.66
2023-01-25T09:06:06.923Z,-0.68
2023-01-25T09:09:09.242Z,-0.69
2023-01-25T09:12:11.317Z,-0.61
2023-01-25T09:15:13.376Z,-0.68
2023-01-25T09:18:16.619Z,-0.63
2023-01-25T09:21:19.843Z,-0.59
2023-01-25T09:24:22.170Z,-0.50
2023-01-25T09:27:24.481Z,-0.62
2023-01-25T09:30:40.769Z,-0.42
2023-01-25T09:33:48.773Z,-0.51
2023-01-25T09:36:52.684Z,-0.48
2023-01-25T09:39:54.538Z,-0.44
2023-01-25T09:43:05.755Z,-0.41
2023-01-25T09:46:22.812Z,-0.50
2023-01-25T09:49:38.313Z,-0.44
2023-01-25T09:53:06.202Z,-0.51
2023-01-25T09:56:12.361Z,-0.52
2023-01-25T09:59:19.741Z,-0.52
2023-01-25T10:02:36.865Z,-0.49
2023-01-25T10:05:45.599Z,-0.57
2023-01-25T10:08:55.809Z,-0.69
2023-01-25T10:12:04.747Z,-0.68
2023-01-25T10:15:17.195Z,-0.54
2023-01-25T10:18:26.232Z,-0.56
2023-01-25T10:21:35.669Z,-0.50
2023-01-25T10:24:54.135Z,-0.60
2023-01-25T10:28:28.044Z,-0.55
2023-01-25T10:31:40.270Z,-0.57
2023-01-25T10:34:56.455Z,-0.48
2023-01-25T10:38:06.057Z,-0.48
2023-01-25T10:41:12.453Z,-0.44
2023-01-25T10:44:14.679Z,-0.48
2023-01-25T10:47:26.704Z,-0.42
2023-01-25T10:50:47.127Z,-0.35
2023-01-25T10:54:00.007Z,-0.51
2023-01-25T10:57:01.948Z,-0.70
2023-01-25T11:00:07.387Z,-0.61
2023-01-25T11:03:21.873Z,-0.51
2023-01-25T11:06:33.125Z,-0.46
2023-01-25T11:09:39.052Z,-0.54
2023-01-25T11:12:42.359Z,-0.55
2023-01-25T11:15:49.631Z,-0.51
2023-01-25T11:18:53.718Z,-0.42
2023-01-25T11:22:00.167Z,-0.44
2023-01-25T11:25:30.996Z,-0.38
2023-01-25T11:28:35.596Z,-0.41
2023-01-25T11:31:38.048Z,-0.44
2023-01-25T11:34:41.989Z,-0.49
2023-01-25T11:38:05.673Z,-0.20
2023-01-25T11:41:19.223Z,-0.39
2023-01-25T11:44:43.636Z,-0.12
2023-01-25T11:48:02.842Z,-0.36
2023-01-25T11:51:08.509Z,-0.37
2023-01-25T11:54:43.503Z,-0.48
2023-01-25T11:58:04.958Z,-0.39
2023-01-25T12:01:16.238Z,-0.40
2023-01-25T12:05:06.412Z,-0.51
2023-01-25T12:08:32.952Z,-0.50
2023-01-25T12:11:47.689Z,-0.54
2023-01-25T12:15:17.403Z,-0.52
2023-01-25T12:18:39.105Z,-0.45
2023-01-25T12:21:53.914Z,-0.24
2023-01-25T12:25:03.612Z,-0.42
2023-01-25T12:28:16.011Z,-0.49
2023-01-25T12:31:25.817Z,-0.49
2023-01-25T12:34:35.729Z,-0.45
2023-01-25T12:37:41.895Z,-0.39
2023-01-25T12:40:49.557Z,-0.45
2023-01-25T12:43:59.313Z,-0.37
2023-01-25T12:47:12.415Z,-0.68
2023-01-25T12:50:18.757Z,-0.57
2023-01-25T12:53:24.879Z,-0.56
2023-01-25T12:56:37.103Z,-0.52
2023-01-25T12:59:48.067Z,-0.51
2023-01-25T13:03:12.333Z,-0.81
2023-01-25T13:06:22.634Z,-0.66
2023-01-25T13:09:30.851Z,-0.65
2023-01-25T13:12:51.320Z,-0.72
2023-01-25T13:15:54.301Z,-0.70
2023-01-25T13:19:00.805Z,-0.70
2023-01-25T13:22:03.631Z,-0.58
2023-01-25T13:25:19.235Z,-0.55
2023-01-25T13:28:42.822Z,-0.67
2023-01-25T13:31:53.731Z,-0.54
2023-01-25T13:35:01.170Z,-0.57
2023-01-25T13:38:25.404Z,-0.54
2023-01-25T13:41:27.231Z,-0.47
2023-01-25T13:44:31.624Z,-0.54
2023-01-25T13:47:36.020Z,-0.51
2023-01-25T13:50:47.246Z,-0.53
2023-01-25T13:53:56.576Z,-0.37
2023-01-25T13:57:21.824Z,-0.37
2023-01-25T14:00:54.634Z,-0.42
2023-01-25T14:04:18.298Z,-0.28
2023-01-25T14:07:46.129Z,-0.17
2023-01-25T14:11:09.526Z,-0.20
2023-01-25T14:14:23.271Z,-0.27
2023-01-25T14:17:25.850Z,-0.14
2023-01-25T14:20:29.326Z,-0.09
2023-01-25T14:23:32.522Z,-0.06
2023-01-25T14:26:36.422Z,0.00
2023-01-25T14:32:42.170Z,-0.02
2023-01-25T14:36:11.613Z,0.01
2023-01-25T14:39:23.429Z,0.08
2023-01-25T14:42:25.341Z,0.12
2023-01-25T14:45:29.952Z,0.06
2023-01-25T14:48:40.572Z,-0.10
2023-01-25T14:51:45.159Z,-0.11
2023-01-25T14:54:53.892Z,-0.27
2023-01-25T14:58:00.214Z,-0.29
2023-01-25T15:01:06.038Z,-0.23
2023-01-25T15:04:12.294Z,-0.13
2023-01-25T15:07:40.711Z,-0.11
2023-01-25T15:10:53.012Z,-0.23
2023-01-25T15:14:02.116Z,-0.18
2023-01-25T15:17:04.236Z,-0.27
2023-01-25T15:20:08.175Z,-0.30
2023-01-25T15:23:31.462Z,-0.18
2023-01-25T15:26:36.676Z,-0.16
2023-01-25T15:29:38.820Z,-0.23
2023-01-25T15:32:41.922Z,-0.25
2023-01-25T15:35:47.992Z,-0.19
2023-01-25T15:38:50.756Z,-0.33
2023-01-25T15:41:55.703Z,-0.27
2023-01-25T15:44:58.042Z,-0.40
2023-01-25T15:48:01.663Z,-0.45
2023-01-25T15:51:05.370Z,-0.45
2023-01-25T15:54:07.464Z,-0.50
2023-01-25T15:57:20.871Z,-0.48
2023-01-25T16:00:23.618Z,-0.38
2023-01-25T16:03:26.594Z,-0.31
2023-01-25T16:06:39.434Z,-0.26
2023-01-25T16:09:42.632Z,-0.30
2023-01-25T16:12:45.853Z,-0.27
2023-01-25T16:15:52.243Z,-0.27
2023-01-25T16:18:56.247Z,-0.36
2023-01-25T16:21:59.339Z,-0.38
2023-01-25T16:25:01.556Z,-0.38
2023-01-25T16:28:10.094Z,-0.34
2023-01-25T16:31:29.906Z,-0.30
2023-01-25T16:34:33.978Z,-0.33
2023-01-25T16:37:37.321Z,-0.28
2023-01-25T16:40:41.708Z,-0.27
2023-01-25T16:43:46.981Z,-0.23
2023-01-25T16:46:51.112Z,-0.31
2023-01-25T16:49:55.232Z,-0.30
2023-01-25T16:52:59.312Z,-0.20
2023-01-25T16:56:02.786Z,-0.44
2023-01-25T16:59:07.024Z,-0.52
2023-01-25T17:02:12.140Z,-0.62
2023-01-25T17:05:14.596Z,-0.71
2023-01-25T17:08:18.629Z,-0.73
2023-01-25T17:11:21.431Z,-0.66
2023-01-25T17:14:25.512Z,-0.59
2023-01-25T17:17:29.808Z,-0.52
2023-01-25T17:20:32.106Z,-0.55
2023-01-25T17:23:36.974Z,-0.62
2023-01-25T17:26:41.008Z,-0.72
2023-01-25T17:29:50.049Z,-0.70
2023-01-25T17:32:53.139Z,-0.64
2023-01-25T17:36:03.774Z,-0.58
2023-01-25T17:39:08.515Z,-0.59
2023-01-25T17:42:10.946Z,-0.74
2023-01-25T17:45:15.900Z,-0.60
2023-01-25T17:48:20.678Z,-0.55
2023-01-25T17:51:24.961Z,-0.56
2023-01-25T17:54:28.028Z,-0.63
2023-01-25T17:57:31.712Z,-0.69
2023-01-25T18:00:38.265Z,-0.69
2023-01-25T18:03:42.432Z,-0.69
2023-01-25T18:06:47.444Z,-0.65
2023-01-25T18:09:51.165Z,-0.68
2023-01-25T18:13:04.066Z,-0.62
2023-01-25T18:16:14.442Z,-0.73
2023-01-25T18:19:18.907Z,-0.64
2023-01-25T18:22:23.288Z,-0.57
2023-01-25T18:25:50.127Z,-0.54
2023-01-25T18:28:54.885Z,-0.54
2023-01-25T18:32:01.987Z,-0.67
2023-01-25T18:35:04.927Z,-0.63
2023-01-25T18:38:09.665Z,-0.57
2023-01-25T18:41:14.836Z,-0.60
2023-01-25T18:44:17.892Z,-0.70
2023-01-25T18:47:25.489Z,-0.69
2023-01-25T18:50:31.682Z,-0.68
2023-01-25T18:53:39.865Z,-0.71
2023-01-25T18:56:46.288Z,-0.83
2023-01-25T18:59:49.530Z,-0.96
2023-01-25T19:02:57.329Z,-0.92
2023-01-25T19:06:01.367Z,-0.96
2023-01-25T19:09:06.750Z,-0.84
2023-01-25T19:12:12.486Z,-0.69
2023-01-25T19:15:15.810Z,-0.91
2023-01-25T19:18:20.772Z,-0.98
2023-01-25T19:21:27.121Z,-0.91
2023-01-25T19:24:31.677Z,-0.94
2023-01-25T19:27:36.391Z,-0.88
2023-01-25T19:30:46.344Z,-0.85
2023-01-25T19:33:55.698Z,-0.81
2023-01-25T19:36:59.323Z,-1.02
2023-01-25T19:40:03.264Z,-1.05
2023-01-25T19:43:06.774Z,-1.11
2023-01-25T19:46:15.388Z,-1.11
2023-01-25T19:49:23.307Z,-1.03
2023-01-25T19:52:26.912Z,-1.19
2023-01-25T19:55:30.879Z,-1.24
2023-01-25T19:58:36.088Z,-1.22
2023-01-25T20:01:40.823Z,-1.13
2023-01-25T20:04:45.434Z,-1.14
2023-01-25T20:07:49.005Z,-1.00
2023-01-25T20:10:57.624Z,-0.92
2023-01-25T20:14:04.049Z,-0.94
2023-01-25T20:17:08.674Z,-0.90
2023-01-25T20:20:28.480Z,-0.88
2023-01-25T20:23:32.773Z,-0.87
2023-01-25T20:26:40.546Z,-0.96
2023-01-25T20:29:43.424Z,-0.95
2023-01-25T20:32:46.737Z,-1.08
2023-01-25T20:35:53.000Z,-1.03
2023-01-25T20:38:56.165Z,-1.17
2023-01-25T20:42:00.434Z,-1.25
2023-01-25T20:45:05.812Z,-1.15
2023-01-25T20:48:09.134Z,-1.15
2023-01-25T20:51:16.581Z,-1.06
2023-01-25T20:54:18.819Z,-0.94
2023-01-25T20:57:21.514Z,-0.96
2023-01-25T21:00:25.788Z,-0.93
2023-01-25T21:03:30.240Z,-0.93
2023-01-25T21:06:34.284Z,-0.91
2023-01-25T21:09:39.959Z,-0.91
2023-01-25T21:12:54.696Z,-0.97
2023-01-25T21:16:02.095Z,-0.91
2023-01-25T21:19:07.109Z,-0.91
2023-01-25T21:22:20.590Z,-0.99
2023-01-25T21:25:24.208Z,-1.05
2023-01-25T21:28:28.268Z,-1.15
2023-01-25T21:31:35.247Z,-1.17
2023-01-25T21:34:39.083Z,-1.10
2023-01-25T21:37:44.997Z,-1.09
2023-01-25T21:40:48.021Z,-1.05
2023-01-25T21:43:51.679Z,-1.04
2023-01-25T21:47:23.537Z,-0.98
2023-01-25T21:50:16.688Z,-1.00
2023-01-25T21:53:20.346Z,-1.03
2023-01-25T21:56:22.966Z,-0.96
2023-01-25T21:59:27.928Z,-0.88
2023-01-25T22:02:30.077Z,-0.83
2023-01-25T22:05:31.992Z,-0.82
2023-01-25T22:08:37.568Z,-0.92
2023-01-25T22:11:40.162Z,-0.88
2023-01-25T22:14:42.302Z,-0.92
2023-01-25T22:17:44.330Z,-0.97
2023-01-25T22:20:46.221Z,-0.91
2023-01-25T22:23:50.880Z,-0.91
2023-01-25T22:27:00.305Z,-1.15
2023-01-25T22:30:04.568Z,-1.13
2023-01-25T22:33:06.389Z,-1.13
2023-01-25T22:36:09.958Z,-1.03
2023-01-25T22:39:14.853Z,-0.99
2023-01-25T22:42:16.831Z,-0.97
2023-01-25T22:45:20.185Z,-1.12
2023-01-25T22:48:21.949Z,-1.06
2023-01-25T22:51:26.500Z,-1.10
2023-01-25T22:54:30.706Z,-1.04
2023-01-25T22:57:33.119Z,-0.99
2023-01-25T23:00:34.966Z,-1.00
2023-01-25T23:03:37.529Z,-0.95
2023-01-25T23:06:39.555Z,-0.93
2023-01-25T23:09:45.288Z,-0.89
2023-01-25T23:12:47.563Z,-0.85
2023-01-25T23:15:50.189Z,-0.85
2023-01-25T23:18:51.925Z,-0.82
2023-01-25T23:21:53.908Z,-0.82
2023-01-25T23:24:57.065Z,-0.85
2023-01-25T23:27:58.906Z,-0.87
2023-01-25T23:31:06.369Z,-0.83
2023-01-25T23:34:08.425Z,-0.89
2023-01-25T23:37:10.588Z,-0.97
2023-01-25T23:40:14.667Z,-0.97
2023-01-25T23:43:17.123Z,-1.02
2023-01-25T23:46:19.585Z,-0.96
2023-01-25T23:49:22.823Z,-0.94
2023-01-25T23:52:25.104Z,-0.92
2023-01-25T23:55:29.281Z,-0.91
2023-01-25T23:58:31.735Z,-0.91
